sensor_id;sensor_type;location;lat;lon;timestamp;P1;durP1;ratioP1;P2;durP2;ratioP2
46365;SDS011;72328;49.570;8.722;2023-08-24T00:01:39;1.63;;;1.50;;
46365;SDS011;72328;49.570;8.722;2023-08-24T00:05:41;3.67;;;1.55;;
46365;SDS011;72328;49.570;8.722;2023-08-24T00:09:42;7.03;;;1.55;;
46365;SDS011;72328;49.570;8.722;2023-08-24T00:13:43;2.08;;;1.50;;
46365;SDS011;72328;49.570;8.722;2023-08-24T00:17:48;4.60;;;2.05;;
46365;SDS011;72328;49.570;8.722;2023-08-24T00:21:49;4.72;;;1.75;;
46365;SDS011;72328;49.570;8.722;2023-08-24T00:25:50;2.80;;;1.80;;
46365;SDS011;72328;49.570;8.722;2023-08-24T00:29:51;2.45;;;1.55;;
46365;SDS011;72328;49.570;8.722;2023-08-24T00:33:52;2.17;;;1.38;;
46365;SDS011;72328;49.570;8.722;2023-08-24T00:37:56;2.13;;;1.58;;
46365;SDS011;72328;49.570;8.722;2023-08-24T00:41:56;1.80;;;1.33;;
46365;SDS011;72328;49.570;8.722;2023-08-24T00:45:59;4.30;;;2.28;;
46365;SDS011;72328;49.570;8.722;2023-08-24T00:50:01;2.67;;;1.90;;
46365;SDS011;72328;49.570;8.722;2023-08-24T00:54:05;3.75;;;1.70;;
46365;SDS011;72328;49.570;8.722;2023-08-24T00:58:06;1.67;;;1.40;;
46365;SDS011;72328;49.570;8.722;2023-08-24T01:02:07;1.98;;;1.33;;
46365;SDS011;72328;49.570;8.722;2023-08-24T01:06:09;1.58;;;1.30;;
46365;SDS011;72328;49.570;8.722;2023-08-24T01:10:10;2.50;;;1.77;;
46365;SDS011;72328;49.570;8.722;2023-08-24T01:14:23;4.30;;;1.38;;
46365;SDS011;72328;49.570;8.722;2023-08-24T01:18:35;3.53;;;1.70;;
46365;SDS011;72328;49.570;8.722;2023-08-24T01:26:54;1.50;;;1.40;;
46365;SDS011;72328;49.570;8.722;2023-08-24T01:30:56;1.83;;;1.52;;
46365;SDS011;72328;49.570;8.722;2023-08-24T01:34:57;3.00;;;1.67;;
46365;SDS011;72328;49.570;8.722;2023-08-24T01:39:04;2.53;;;1.50;;
46365;SDS011;72328;49.570;8.722;2023-08-24T01:43:14;1.98;;;1.70;;
46365;SDS011;72328;49.570;8.722;2023-08-24T01:47:18;2.20;;;1.90;;
46365;SDS011;72328;49.570;8.722;2023-08-24T01:51:21;2.13;;;1.75;;
46365;SDS011;72328;49.570;8.722;2023-08-24T01:55:24;4.18;;;1.50;;
46365;SDS011;72328;49.570;8.722;2023-08-24T01:59:25;7.18;;;1.80;;
46365;SDS011;72328;49.570;8.722;2023-08-24T02:03:26;2.40;;;1.58;;
46365;SDS011;72328;49.570;8.722;2023-08-24T02:07:27;2.53;;;2.00;;
46365;SDS011;72328;49.570;8.722;2023-08-24T02:11:27;2.72;;;1.70;;
46365;SDS011;72328;49.570;8.722;2023-08-24T02:15:28;2.45;;;1.80;;
46365;SDS011;72328;49.570;8.722;2023-08-24T02:19:29;2.95;;;1.83;;
46365;SDS011;72328;49.570;8.722;2023-08-24T02:23:30;2.85;;;1.75;;
46365;SDS011;72328;49.570;8.722;2023-08-24T02:27:31;2.03;;;1.80;;
46365;SDS011;72328;49.570;8.722;2023-08-24T02:31:33;4.90;;;1.70;;
46365;SDS011;72328;49.570;8.722;2023-08-24T02:35:33;1.60;;;1.50;;
46365;SDS011;72328;49.570;8.722;2023-08-24T02:39:34;2.45;;;1.45;;
46365;SDS011;72328;49.570;8.722;2023-08-24T02:43:35;2.25;;;1.67;;
46365;SDS011;72328;49.570;8.722;2023-08-24T02:47:36;3.47;;;1.70;;
46365;SDS011;72328;49.570;8.722;2023-08-24T02:51:37;1.77;;;1.65;;
46365;SDS011;72328;49.570;8.722;2023-08-24T02:55:38;3.78;;;2.38;;
46365;SDS011;72328;49.570;8.722;2023-08-24T02:59:39;2.20;;;1.88;;
46365;SDS011;72328;49.570;8.722;2023-08-24T03:03:43;2.13;;;1.63;;
46365;SDS011;72328;49.570;8.722;2023-08-24T03:07:44;3.47;;;1.77;;
46365;SDS011;72328;49.570;8.722;2023-08-24T03:11:45;3.55;;;2.17;;
46365;SDS011;72328;49.570;8.722;2023-08-24T03:15:45;2.50;;;2.10;;
46365;SDS011;72328;49.570;8.722;2023-08-24T03:19:46;2.72;;;1.65;;
46365;SDS011;72328;49.570;8.722;2023-08-24T03:23:47;1.88;;;1.55;;
46365;SDS011;72328;49.570;8.722;2023-08-24T03:27:48;2.33;;;1.75;;
46365;SDS011;72328;49.570;8.722;2023-08-24T03:31:49;1.85;;;1.65;;
46365;SDS011;72328;49.570;8.722;2023-08-24T03:35:49;1.92;;;1.73;;
46365;SDS011;72328;49.570;8.722;2023-08-24T03:39:51;3.25;;;1.75;;
46365;SDS011;72328;49.570;8.722;2023-08-24T03:43:51;2.95;;;1.80;;
46365;SDS011;72328;49.570;8.722;2023-08-24T03:47:52;4.03;;;1.90;;
46365;SDS011;72328;49.570;8.722;2023-08-24T03:51:53;4.20;;;1.90;;
46365;SDS011;72328;49.570;8.722;2023-08-24T03:55:54;2.13;;;1.73;;
46365;SDS011;72328;49.570;8.722;2023-08-24T03:59:55;3.05;;;1.70;;
46365;SDS011;72328;49.570;8.722;2023-08-24T04:03:56;3.03;;;1.65;;
46365;SDS011;72328;49.570;8.722;2023-08-24T04:07:57;1.98;;;1.77;;
46365;SDS011;72328;49.570;8.722;2023-08-24T04:12:00;3.28;;;1.92;;
46365;SDS011;72328;49.570;8.722;2023-08-24T04:16:01;4.10;;;1.92;;
46365;SDS011;72328;49.570;8.722;2023-08-24T04:20:03;1.58;;;1.48;;
46365;SDS011;72328;49.570;8.722;2023-08-24T04:24:06;2.28;;;2.08;;
46365;SDS011;72328;49.570;8.722;2023-08-24T04:28:07;3.00;;;2.00;;
46365;SDS011;72328;49.570;8.722;2023-08-24T04:32:08;3.33;;;1.83;;
46365;SDS011;72328;49.570;8.722;2023-08-24T04:36:08;2.13;;;1.58;;
46365;SDS011;72328;49.570;8.722;2023-08-24T04:40:09;2.10;;;1.90;;
46365;SDS011;72328;49.570;8.722;2023-08-24T04:44:11;2.00;;;1.80;;
46365;SDS011;72328;49.570;8.722;2023-08-24T04:48:12;3.13;;;1.98;;
46365;SDS011;72328;49.570;8.722;2023-08-24T04:52:12;3.10;;;1.95;;
46365;SDS011;72328;49.570;8.722;2023-08-24T04:56:14;2.80;;;1.63;;
46365;SDS011;72328;49.570;8.722;2023-08-24T05:00:16;1.98;;;1.75;;
46365;SDS011;72328;49.570;8.722;2023-08-24T05:04:17;2.78;;;1.77;;
46365;SDS011;72328;49.570;8.722;2023-08-24T05:08:18;1.92;;;1.70;;
46365;SDS011;72328;49.570;8.722;2023-08-24T05:12:19;2.90;;;1.80;;
46365;SDS011;72328;49.570;8.722;2023-08-24T05:16:19;2.80;;;1.63;;
46365;SDS011;72328;49.570;8.722;2023-08-24T05:20:21;3.85;;;1.83;;
46365;SDS011;72328;49.570;8.722;2023-08-24T05:24:27;3.05;;;1.80;;
46365;SDS011;72328;49.570;8.722;2023-08-24T05:28:28;2.50;;;1.70;;
46365;SDS011;72328;49.570;8.722;2023-08-24T05:32:31;3.35;;;1.92;;
46365;SDS011;72328;49.570;8.722;2023-08-24T05:36:31;2.78;;;1.75;;
46365;SDS011;72328;49.570;8.722;2023-08-24T05:40:33;3.70;;;1.77;;
46365;SDS011;72328;49.570;8.722;2023-08-24T05:44:35;2.05;;;1.90;;
46365;SDS011;72328;49.570;8.722;2023-08-24T05:48:36;2.40;;;1.92;;
46365;SDS011;72328;49.570;8.722;2023-08-24T05:52:37;4.05;;;1.95;;
46365;SDS011;72328;49.570;8.722;2023-08-24T05:56:37;2.80;;;1.95;;
46365;SDS011;72328;49.570;8.722;2023-08-24T06:00:38;4.95;;;2.00;;
46365;SDS011;72328;49.570;8.722;2023-08-24T06:04:39;2.80;;;2.13;;
46365;SDS011;72328;49.570;8.722;2023-08-24T06:08:40;2.28;;;2.08;;
46365;SDS011;72328;49.570;8.722;2023-08-24T06:12:41;2.72;;;2.08;;
46365;SDS011;72328;49.570;8.722;2023-08-24T06:16:41;1.83;;;1.70;;
46365;SDS011;72328;49.570;8.722;2023-08-24T06:20:42;1.92;;;1.60;;
46365;SDS011;72328;49.570;8.722;2023-08-24T06:24:43;3.67;;;1.90;;
46365;SDS011;72328;49.570;8.722;2023-08-24T06:28:44;2.13;;;1.38;;
46365;SDS011;72328;49.570;8.722;2023-08-24T06:32:45;2.58;;;1.38;;
46365;SDS011;72328;49.570;8.722;2023-08-24T06:36:46;20.95;;;8.45;;
46365;SDS011;72328;49.570;8.722;2023-08-24T06:40:47;15.38;;;8.45;;
46365;SDS011;72328;49.570;8.722;2023-08-24T06:44:48;4.68;;;2.75;;
46365;SDS011;72328;49.570;8.722;2023-08-24T06:48:51;3.80;;;2.55;;
46365;SDS011;72328;49.570;8.722;2023-08-24T06:52:52;3.25;;;1.98;;
46365;SDS011;72328;49.570;8.722;2023-08-24T06:56:53;3.42;;;2.08;;
46365;SDS011;72328;49.570;8.722;2023-08-24T07:00:56;4.70;;;2.35;;
46365;SDS011;72328;49.570;8.722;2023-08-24T07:04:57;3.17;;;2.00;;
46365;SDS011;72328;49.570;8.722;2023-08-24T07:08:58;3.45;;;1.90;;
46365;SDS011;72328;49.570;8.722;2023-08-24T07:12:59;4.38;;;2.20;;
46365;SDS011;72328;49.570;8.722;2023-08-24T07:16:59;2.08;;;1.88;;
46365;SDS011;72328;49.570;8.722;2023-08-24T07:21:00;4.57;;;2.00;;
46365;SDS011;72328;49.570;8.722;2023-08-24T07:25:01;5.63;;;1.73;;
46365;SDS011;72328;49.570;8.722;2023-08-24T07:29:05;2.50;;;2.08;;
46365;SDS011;72328;49.570;8.722;2023-08-24T07:33:06;2.40;;;1.85;;
46365;SDS011;72328;49.570;8.722;2023-08-24T07:37:07;2.08;;;1.85;;
46365;SDS011;72328;49.570;8.722;2023-08-24T07:41:08;2.17;;;1.70;;
46365;SDS011;72328;49.570;8.722;2023-08-24T07:45:09;2.33;;;1.60;;
46365;SDS011;72328;49.570;8.722;2023-08-24T07:49:10;3.25;;;1.58;;
46365;SDS011;72328;49.570;8.722;2023-08-24T07:53:11;2.30;;;1.38;;
46365;SDS011;72328;49.570;8.722;2023-08-24T07:57:11;3.13;;;1.50;;
46365;SDS011;72328;49.570;8.722;2023-08-24T08:01:12;5.13;;;1.38;;
46365;SDS011;72328;49.570;8.722;2023-08-24T08:05:13;2.22;;;1.33;;
46365;SDS011;72328;49.570;8.722;2023-08-24T08:09:14;4.85;;;1.38;;
46365;SDS011;72328;49.570;8.722;2023-08-24T08:13:16;1.77;;;1.33;;
46365;SDS011;72328;49.570;8.722;2023-08-24T08:17:17;1.77;;;1.20;;
46365;SDS011;72328;49.570;8.722;2023-08-24T08:21:18;2.83;;;1.30;;
46365;SDS011;72328;49.570;8.722;2023-08-24T08:25:19;3.67;;;1.38;;
46365;SDS011;72328;49.570;8.722;2023-08-24T08:29:22;2.15;;;1.20;;
46365;SDS011;72328;49.570;8.722;2023-08-24T08:33:23;1.90;;;1.33;;
46365;SDS011;72328;49.570;8.722;2023-08-24T08:37:24;1.85;;;1.10;;
46365;SDS011;72328;49.570;8.722;2023-08-24T08:41:26;4.32;;;1.77;;
46365;SDS011;72328;49.570;8.722;2023-08-24T08:45:33;2.35;;;1.02;;
46365;SDS011;72328;49.570;8.722;2023-08-24T08:49:34;2.17;;;1.40;;
46365;SDS011;72328;49.570;8.722;2023-08-24T08:53:35;1.70;;;1.15;;
46365;SDS011;72328;49.570;8.722;2023-08-24T08:57:36;2.40;;;1.60;;
46365;SDS011;72328;49.570;8.722;2023-08-24T09:01:39;3.15;;;1.50;;
46365;SDS011;72328;49.570;8.722;2023-08-24T09:05:41;2.78;;;2.25;;
46365;SDS011;72328;49.570;8.722;2023-08-24T09:09:43;2.53;;;1.90;;
46365;SDS011;72328;49.570;8.722;2023-08-24T09:13:44;2.58;;;1.52;;
46365;SDS011;72328;49.570;8.722;2023-08-24T09:17:45;2.55;;;1.50;;
46365;SDS011;72328;49.570;8.722;2023-08-24T09:21:49;2.75;;;1.77;;
46365;SDS011;72328;49.570;8.722;2023-08-24T09:25:50;2.88;;;1.30;;
46365;SDS011;72328;49.570;8.722;2023-08-24T09:29:51;2.90;;;1.50;;
46365;SDS011;72328;49.570;8.722;2023-08-24T09:33:59;1.80;;;1.10;;
46365;SDS011;72328;49.570;8.722;2023-08-24T09:38:00;3.85;;;1.08;;
46365;SDS011;72328;49.570;8.722;2023-08-24T09:46:25;1.73;;;1.00;;
46365;SDS011;72328;49.570;8.722;2023-08-24T09:50:26;1.73;;;1.20;;
46365;SDS011;72328;49.570;8.722;2023-08-24T09:54:27;1.00;;;0.88;;
46365;SDS011;72328;49.570;8.722;2023-08-24T09:58:31;2.15;;;1.20;;
46365;SDS011;72328;49.570;8.722;2023-08-24T10:02:32;4.00;;;1.02;;
46365;SDS011;72328;49.570;8.722;2023-08-24T10:06:42;2.90;;;1.02;;
46365;SDS011;72328;49.570;8.722;2023-08-24T10:10:49;1.45;;;1.08;;
46365;SDS011;72328;49.570;8.722;2023-08-24T10:15:00;1.85;;;1.10;;
46365;SDS011;72328;49.570;8.722;2023-08-24T10:19:07;3.22;;;1.30;;
46365;SDS011;72328;49.570;8.722;2023-08-24T10:23:09;1.60;;;1.25;;
46365;SDS011;72328;49.570;8.722;2023-08-24T10:27:12;1.20;;;1.00;;
46365;SDS011;72328;49.570;8.722;2023-08-24T10:31:15;1.83;;;1.05;;
46365;SDS011;72328;49.570;8.722;2023-08-24T10:35:16;2.03;;;1.23;;
46365;SDS011;72328;49.570;8.722;2023-08-24T10:39:17;3.67;;;1.20;;
46365;SDS011;72328;49.570;8.722;2023-08-24T10:43:21;1.90;;;1.00;;
46365;SDS011;72328;49.570;8.722;2023-08-24T10:47:23;2.38;;;1.23;;
46365;SDS011;72328;49.570;8.722;2023-08-24T10:51:24;2.15;;;1.33;;
46365;SDS011;72328;49.570;8.722;2023-08-24T10:55:30;2.55;;;0.90;;
46365;SDS011;72328;49.570;8.722;2023-08-24T10:59:34;1.77;;;1.10;;
46365;SDS011;72328;49.570;8.722;2023-08-24T11:03:35;2.25;;;1.10;;
46365;SDS011;72328;49.570;8.722;2023-08-24T11:07:46;1.83;;;1.38;;
46365;SDS011;72328;49.570;8.722;2023-08-24T11:11:56;3.22;;;1.65;;
46365;SDS011;72328;49.570;8.722;2023-08-24T11:15:58;1.42;;;1.33;;
46365;SDS011;72328;49.570;8.722;2023-08-24T11:20:04;1.95;;;1.25;;
46365;SDS011;72328;49.570;8.722;2023-08-24T11:24:08;2.33;;;1.33;;
46365;SDS011;72328;49.570;8.722;2023-08-24T11:28:13;1.70;;;1.45;;
46365;SDS011;72328;49.570;8.722;2023-08-24T11:36:20;2.20;;;1.40;;
46365;SDS011;72328;49.570;8.722;2023-08-24T11:40:21;2.20;;;1.17;;
46365;SDS011;72328;49.570;8.722;2023-08-24T11:44:27;1.52;;;1.25;;
46365;SDS011;72328;49.570;8.722;2023-08-24T11:48:30;1.75;;;1.00;;
46365;SDS011;72328;49.570;8.722;2023-08-24T11:52:31;1.52;;;1.27;;
46365;SDS011;72328;49.570;8.722;2023-08-24T11:56:41;2.78;;;1.45;;
46365;SDS011;72328;49.570;8.722;2023-08-24T12:04:44;2.30;;;1.45;;
46365;SDS011;72328;49.570;8.722;2023-08-24T12:08:49;2.30;;;1.27;;
46365;SDS011;72328;49.570;8.722;2023-08-24T12:13:00;1.30;;;1.17;;
46365;SDS011;72328;49.570;8.722;2023-08-24T12:17:10;3.22;;;1.30;;
46365;SDS011;72328;49.570;8.722;2023-08-24T12:21:11;2.03;;;1.20;;
46365;SDS011;72328;49.570;8.722;2023-08-24T12:25:13;1.70;;;1.40;;
46365;SDS011;72328;49.570;8.722;2023-08-24T12:29:16;3.15;;;1.50;;
46365;SDS011;72328;49.570;8.722;2023-08-24T12:33:25;1.45;;;1.17;;
46365;SDS011;72328;49.570;8.722;2023-08-24T12:37:31;2.60;;;1.40;;
46365;SDS011;72328;49.570;8.722;2023-08-24T12:41:31;3.58;;;1.42;;
46365;SDS011;72328;49.570;8.722;2023-08-24T12:45:33;1.70;;;1.20;;
46365;SDS011;72328;49.570;8.722;2023-08-24T12:49:33;2.85;;;1.30;;
46365;SDS011;72328;49.570;8.722;2023-08-24T12:53:34;2.85;;;1.30;;
46365;SDS011;72328;49.570;8.722;2023-08-24T12:57:35;3.70;;;1.52;;
46365;SDS011;72328;49.570;8.722;2023-08-24T13:01:36;2.03;;;1.42;;
46365;SDS011;72328;49.570;8.722;2023-08-24T13:05:37;1.73;;;1.33;;
46365;SDS011;72328;49.570;8.722;2023-08-24T13:09:37;2.75;;;1.35;;
46365;SDS011;72328;49.570;8.722;2023-08-24T13:13:38;2.15;;;1.33;;
46365;SDS011;72328;49.570;8.722;2023-08-24T13:17:39;1.73;;;1.30;;
46365;SDS011;72328;49.570;8.722;2023-08-24T13:21:40;1.85;;;1.52;;
46365;SDS011;72328;49.570;8.722;2023-08-24T13:25:40;1.70;;;1.50;;
46365;SDS011;72328;49.570;8.722;2023-08-24T13:29:41;1.90;;;1.40;;
46365;SDS011;72328;49.570;8.722;2023-08-24T13:33:42;1.83;;;1.42;;
46365;SDS011;72328;49.570;8.722;2023-08-24T13:37:44;2.03;;;1.27;;
46365;SDS011;72328;49.570;8.722;2023-08-24T13:41:44;1.70;;;1.42;;
46365;SDS011;72328;49.570;8.722;2023-08-24T13:45:45;2.13;;;1.52;;
46365;SDS011;72328;49.570;8.722;2023-08-24T13:49:46;3.30;;;1.70;;
46365;SDS011;72328;49.570;8.722;2023-08-24T13:53:48;3.83;;;1.58;;
46365;SDS011;72328;49.570;8.722;2023-08-24T13:57:49;2.35;;;1.60;;
46365;SDS011;72328;49.570;8.722;2023-08-24T14:01:50;4.72;;;2.10;;
46365;SDS011;72328;49.570;8.722;2023-08-24T14:05:57;2.08;;;1.25;;
46365;SDS011;72328;49.570;8.722;2023-08-24T14:09:58;1.73;;;1.52;;
46365;SDS011;72328;49.570;8.722;2023-08-24T14:13:59;2.08;;;1.67;;
46365;SDS011;72328;49.570;8.722;2023-08-24T14:18:00;3.00;;;2.00;;
46365;SDS011;72328;49.570;8.722;2023-08-24T14:22:01;2.63;;;1.85;;
46365;SDS011;72328;49.570;8.722;2023-08-24T14:26:02;2.60;;;1.80;;
46365;SDS011;72328;49.570;8.722;2023-08-24T14:30:03;4.15;;;1.88;;
46365;SDS011;72328;49.570;8.722;2023-08-24T14:34:04;2.40;;;1.70;;
46365;SDS011;72328;49.570;8.722;2023-08-24T14:38:05;4.05;;;1.90;;
46365;SDS011;72328;49.570;8.722;2023-08-24T14:42:06;2.05;;;1.60;;
46365;SDS011;72328;49.570;8.722;2023-08-24T14:46:07;4.20;;;1.38;;
46365;SDS011;72328;49.570;8.722;2023-08-24T14:50:09;3.40;;;1.48;;
46365;SDS011;72328;49.570;8.722;2023-08-24T14:54:10;3.80;;;1.75;;
46365;SDS011;72328;49.570;8.722;2023-08-24T14:58:14;2.92;;;1.38;;
46365;SDS011;72328;49.570;8.722;2023-08-24T15:02:15;4.80;;;1.75;;
46365;SDS011;72328;49.570;8.722;2023-08-24T15:06:16;7.00;;;1.52;;
46365;SDS011;72328;49.570;8.722;2023-08-24T15:10:17;3.33;;;1.70;;
46365;SDS011;72328;49.570;8.722;2023-08-24T15:14:18;1.92;;;1.40;;
46365;SDS011;72328;49.570;8.722;2023-08-24T15:18:19;4.32;;;1.77;;
46365;SDS011;72328;49.570;8.722;2023-08-24T15:22:21;2.83;;;1.70;;
46365;SDS011;72328;49.570;8.722;2023-08-24T15:26:29;3.33;;;1.73;;
46365;SDS011;72328;49.570;8.722;2023-08-24T15:30:30;4.75;;;1.80;;
46365;SDS011;72328;49.570;8.722;2023-08-24T15:34:31;3.78;;;1.60;;
46365;SDS011;72328;49.570;8.722;2023-08-24T15:38:33;2.47;;;1.60;;
46365;SDS011;72328;49.570;8.722;2023-08-24T15:42:34;6.63;;;2.00;;
46365;SDS011;72328;49.570;8.722;2023-08-24T15:46:34;2.00;;;1.80;;
46365;SDS011;72328;49.570;8.722;2023-08-24T15:50:36;2.20;;;1.80;;
46365;SDS011;72328;49.570;8.722;2023-08-24T15:54:37;2.25;;;1.90;;
46365;SDS011;72328;49.570;8.722;2023-08-24T15:58:38;4.88;;;1.58;;
46365;SDS011;72328;49.570;8.722;2023-08-24T16:02:39;2.42;;;1.73;;
46365;SDS011;72328;49.570;8.722;2023-08-24T16:06:41;2.08;;;1.67;;
46365;SDS011;72328;49.570;8.722;2023-08-24T16:10:42;2.33;;;2.05;;
46365;SDS011;72328;49.570;8.722;2023-08-24T16:14:44;3.92;;;1.90;;
46365;SDS011;72328;49.570;8.722;2023-08-24T16:18:45;3.13;;;1.95;;
46365;SDS011;72328;49.570;8.722;2023-08-24T16:22:45;4.85;;;2.55;;
46365;SDS011;72328;49.570;8.722;2023-08-24T16:26:46;2.80;;;2.30;;
46365;SDS011;72328;49.570;8.722;2023-08-24T16:30:47;4.68;;;2.10;;
46365;SDS011;72328;49.570;8.722;2023-08-24T16:34:48;2.53;;;2.00;;
46365;SDS011;72328;49.570;8.722;2023-08-24T16:38:49;3.42;;;2.30;;
46365;SDS011;72328;49.570;8.722;2023-08-24T16:42:50;3.45;;;2.15;;
46365;SDS011;72328;49.570;8.722;2023-08-24T16:46:52;3.53;;;2.03;;
46365;SDS011;72328;49.570;8.722;2023-08-24T16:50:52;2.53;;;2.00;;
46365;SDS011;72328;49.570;8.722;2023-08-24T16:54:53;1.95;;;1.75;;
46365;SDS011;72328;49.570;8.722;2023-08-24T16:58:54;3.75;;;2.20;;
46365;SDS011;72328;49.570;8.722;2023-08-24T17:02:55;2.70;;;1.73;;
46365;SDS011;72328;49.570;8.722;2023-08-24T17:06:56;2.85;;;2.08;;
46365;SDS011;72328;49.570;8.722;2023-08-24T17:10:57;3.17;;;1.65;;
46365;SDS011;72328;49.570;8.722;2023-08-24T17:14:57;3.40;;;2.00;;
46365;SDS011;72328;49.570;8.722;2023-08-24T17:18:58;2.10;;;1.83;;
46365;SDS011;72328;49.570;8.722;2023-08-24T17:22:59;4.60;;;2.40;;
46365;SDS011;72328;49.570;8.722;2023-08-24T17:27:00;4.50;;;2.35;;
46365;SDS011;72328;49.570;8.722;2023-08-24T17:31:01;4.63;;;2.30;;
46365;SDS011;72328;49.570;8.722;2023-08-24T17:35:03;3.75;;;2.10;;
46365;SDS011;72328;49.570;8.722;2023-08-24T17:39:04;5.45;;;2.63;;
46365;SDS011;72328;49.570;8.722;2023-08-24T17:43:08;2.67;;;2.28;;
46365;SDS011;72328;49.570;8.722;2023-08-24T17:47:09;4.45;;;2.55;;
46365;SDS011;72328;49.570;8.722;2023-08-24T17:51:10;5.97;;;2.22;;
46365;SDS011;72328;49.570;8.722;2023-08-24T17:55:11;3.30;;;2.42;;
46365;SDS011;72328;49.570;8.722;2023-08-24T17:59:12;3.90;;;2.38;;
46365;SDS011;72328;49.570;8.722;2023-08-24T18:03:13;4.90;;;2.33;;
46365;SDS011;72328;49.570;8.722;2023-08-24T18:07:14;5.68;;;2.97;;
46365;SDS011;72328;49.570;8.722;2023-08-24T18:11:16;3.25;;;2.30;;
46365;SDS011;72328;49.570;8.722;2023-08-24T18:15:17;2.33;;;2.13;;
46365;SDS011;72328;49.570;8.722;2023-08-24T18:19:18;2.53;;;2.17;;
46365;SDS011;72328;49.570;8.722;2023-08-24T18:23:18;3.20;;;2.17;;
46365;SDS011;72328;49.570;8.722;2023-08-24T18:27:19;5.28;;;2.72;;
46365;SDS011;72328;49.570;8.722;2023-08-24T18:31:20;3.10;;;2.40;;
46365;SDS011;72328;49.570;8.722;2023-08-24T18:35:24;3.28;;;2.67;;
46365;SDS011;72328;49.570;8.722;2023-08-24T18:39:25;4.03;;;2.45;;
46365;SDS011;72328;49.570;8.722;2023-08-24T18:43:26;6.57;;;2.80;;
46365;SDS011;72328;49.570;8.722;2023-08-24T18:47:29;8.55;;;3.05;;
46365;SDS011;72328;49.570;8.722;2023-08-24T18:51:30;4.40;;;2.97;;
46365;SDS011;72328;49.570;8.722;2023-08-24T18:55:30;4.65;;;3.40;;
46365;SDS011;72328;49.570;8.722;2023-08-24T18:59:31;4.13;;;2.88;;
46365;SDS011;72328;49.570;8.722;2023-08-24T19:03:32;12.00;;;7.75;;
46365;SDS011;72328;49.570;8.722;2023-08-24T19:07:33;6.35;;;3.78;;
46365;SDS011;72328;49.570;8.722;2023-08-24T19:11:34;4.90;;;3.25;;
46365;SDS011;72328;49.570;8.722;2023-08-24T19:15:35;5.75;;;3.13;;
46365;SDS011;72328;49.570;8.722;2023-08-24T19:19:36;4.22;;;3.08;;
46365;SDS011;72328;49.570;8.722;2023-08-24T19:23:37;4.65;;;3.17;;
46365;SDS011;72328;49.570;8.722;2023-08-24T19:27:38;5.00;;;2.67;;
46365;SDS011;72328;49.570;8.722;2023-08-24T19:31:39;6.15;;;4.68;;
46365;SDS011;72328;49.570;8.722;2023-08-24T19:35:40;5.00;;;3.58;;
46365;SDS011;72328;49.570;8.722;2023-08-24T19:39:41;4.15;;;3.20;;
46365;SDS011;72328;49.570;8.722;2023-08-24T19:43:42;3.95;;;2.08;;
46365;SDS011;72328;49.570;8.722;2023-08-24T19:47:43;3.28;;;1.83;;
46365;SDS011;72328;49.570;8.722;2023-08-24T19:51:44;3.00;;;1.88;;
46365;SDS011;72328;49.570;8.722;2023-08-24T19:55:45;3.35;;;2.30;;
46365;SDS011;72328;49.570;8.722;2023-08-24T19:59:46;3.70;;;2.83;;
46365;SDS011;72328;49.570;8.722;2023-08-24T20:03:46;4.15;;;3.10;;
46365;SDS011;72328;49.570;8.722;2023-08-24T20:07:47;5.35;;;3.05;;
46365;SDS011;72328;49.570;8.722;2023-08-24T20:11:49;3.78;;;2.60;;
46365;SDS011;72328;49.570;8.722;2023-08-24T20:15:50;4.47;;;2.35;;
46365;SDS011;72328;49.570;8.722;2023-08-24T20:19:51;3.15;;;2.78;;
46365;SDS011;72328;49.570;8.722;2023-08-24T20:23:53;4.68;;;2.97;;
46365;SDS011;72328;49.570;8.722;2023-08-24T20:27:53;6.35;;;3.15;;
46365;SDS011;72328;49.570;8.722;2023-08-24T20:31:54;3.38;;;2.53;;
46365;SDS011;72328;49.570;8.722;2023-08-24T20:35:55;2.92;;;2.42;;
46365;SDS011;72328;49.570;8.722;2023-08-24T20:39:56;3.78;;;2.45;;
46365;SDS011;72328;49.570;8.722;2023-08-24T20:43:58;2.58;;;2.30;;
46365;SDS011;72328;49.570;8.722;2023-08-24T20:47:58;5.60;;;2.88;;
46365;SDS011;72328;49.570;8.722;2023-08-24T20:52:00;3.75;;;2.63;;
46365;SDS011;72328;49.570;8.722;2023-08-24T20:56:01;2.65;;;2.25;;
46365;SDS011;72328;49.570;8.722;2023-08-24T21:00:03;2.20;;;2.00;;
46365;SDS011;72328;49.570;8.722;2023-08-24T21:04:05;2.88;;;2.22;;
46365;SDS011;72328;49.570;8.722;2023-08-24T21:08:08;2.55;;;2.35;;
46365;SDS011;72328;49.570;8.722;2023-08-24T21:12:09;4.28;;;2.33;;
46365;SDS011;72328;49.570;8.722;2023-08-24T21:16:10;2.53;;;2.33;;
46365;SDS011;72328;49.570;8.722;2023-08-24T21:20:10;3.13;;;2.35;;
46365;SDS011;72328;49.570;8.722;2023-08-24T21:24:11;4.05;;;2.28;;
46365;SDS011;72328;49.570;8.722;2023-08-24T21:28:12;4.90;;;3.05;;
46365;SDS011;72328;49.570;8.722;2023-08-24T21:32:13;3.33;;;2.53;;
46365;SDS011;72328;49.570;8.722;2023-08-24T21:36:14;4.38;;;1.85;;
46365;SDS011;72328;49.570;8.722;2023-08-24T21:40:15;4.57;;;2.58;;
46365;SDS011;72328;49.570;8.722;2023-08-24T21:44:22;3.78;;;2.70;;
46365;SDS011;72328;49.570;8.722;2023-08-24T21:48:22;5.40;;;2.70;;
46365;SDS011;72328;49.570;8.722;2023-08-24T21:52:23;4.72;;;2.80;;
46365;SDS011;72328;49.570;8.722;2023-08-24T21:56:24;4.20;;;2.95;;
46365;SDS011;72328;49.570;8.722;2023-08-24T22:00:25;5.53;;;2.63;;
46365;SDS011;72328;49.570;8.722;2023-08-24T22:04:26;3.88;;;3.25;;
46365;SDS011;72328;49.570;8.722;2023-08-24T22:08:27;6.55;;;4.93;;
46365;SDS011;72328;49.570;8.722;2023-08-24T22:12:29;12.70;;;5.75;;
46365;SDS011;72328;49.570;8.722;2023-08-24T22:16:31;4.70;;;3.25;;
46365;SDS011;72328;49.570;8.722;2023-08-24T22:20:42;3.70;;;3.40;;
46365;SDS011;72328;49.570;8.722;2023-08-24T22:24:43;3.63;;;3.05;;
46365;SDS011;72328;49.570;8.722;2023-08-24T22:28:44;3.22;;;2.92;;
46365;SDS011;72328;49.570;8.722;2023-08-24T22:32:45;3.35;;;3.05;;
46365;SDS011;72328;49.570;8.722;2023-08-24T22:36:46;6.95;;;2.72;;
46365;SDS011;72328;49.570;8.722;2023-08-24T22:40:47;4.05;;;2.80;;
46365;SDS011;72328;49.570;8.722;2023-08-24T22:44:48;3.38;;;2.80;;
46365;SDS011;72328;49.570;8.722;2023-08-24T22:48:49;3.78;;;2.95;;
46365;SDS011;72328;49.570;8.722;2023-08-24T22:52:50;5.13;;;2.78;;
46365;SDS011;72328;49.570;8.722;2023-08-24T22:56:51;3.33;;;2.80;;
46365;SDS011;72328;49.570;8.722;2023-08-24T23:00:51;4.25;;;2.92;;
46365;SDS011;72328;49.570;8.722;2023-08-24T23:04:52;2.63;;;2.42;;
46365;SDS011;72328;49.570;8.722;2023-08-24T23:08:53;3.78;;;2.65;;
46365;SDS011;72328;49.570;8.722;2023-08-24T23:12:55;4.80;;;2.45;;
46365;SDS011;72328;49.570;8.722;2023-08-24T23:16:56;3.30;;;2.42;;
46365;SDS011;72328;49.570;8.722;2023-08-24T23:20:57;2.83;;;2.63;;
46365;SDS011;72328;49.570;8.722;2023-08-24T23:24:58;4.18;;;3.40;;
46365;SDS011;72328;49.570;8.722;2023-08-24T23:28:59;2.75;;;2.47;;
46365;SDS011;72328;49.570;8.722;2023-08-24T23:33:00;3.00;;;2.42;;
46365;SDS011;72328;49.570;8.722;2023-08-24T23:37:01;3.83;;;3.10;;
46365;SDS011;72328;49.570;8.722;2023-08-24T23:41:02;3.45;;;2.83;;
46365;SDS011;72328;49.570;8.722;2023-08-24T23:45:03;4.40;;;3.38;;
46365;SDS011;72328;49.570;8.722;2023-08-24T23:49:05;33.90;;;5.18;;
46365;SDS011;72328;49.570;8.722;2023-08-24T23:53:06;18.73;;;4.25;;
46365;SDS011;72328;49.570;8.722;2023-08-24T23:57:06;22.35;;;3.67;;
